createdAt,value
2022-11-04T00:00:17.176Z,10.07
2022-11-04T00:03:20.176Z,9.96
2022-11-04T00:06:23.074Z,10.00
2022-11-04T00:09:27.553Z,10.01
2022-11-04T00:12:30.695Z,10.10
2022-11-04T00:15:55.235Z,10.03
2022-11-04T00:18:58.347Z,10.10
2022-11-04T00:22:18.814Z,10.06
2022-11-04T00:28:46.147Z,10.13
2022-11-04T00:32:06.558Z,10.17
2022-11-04T00:35:11.068Z,10.04
2022-11-04T00:38:13.950Z,10.10
2022-11-04T00:41:30.144Z,10.09
2022-11-04T00:44:34.761Z,10.07
2022-11-04T00:47:37.631Z,10.13
2022-11-04T00:50:40.707Z,10.32
2022-11-04T00:53:43.808Z,10.42
2022-11-04T00:56:48.497Z,10.64
2022-11-04T00:59:52.764Z,10.79
2022-11-04T01:02:56.972Z,10.88
2022-11-04T01:05:59.921Z,10.94
2022-11-04T01:09:05.495Z,10.69
2022-11-04T01:12:08.366Z,10.44
2022-11-04T01:15:12.911Z,10.55
2022-11-04T01:18:15.769Z,10.42
2022-11-04T01:21:18.896Z,10.37
2022-11-04T01:24:22.128Z,10.35
2022-11-04T01:27:24.960Z,10.28
2022-11-04T01:30:29.181Z,10.24
2022-11-04T01:33:32.075Z,10.28
2022-11-04T01:36:34.962Z,10.19
2022-11-04T01:39:37.844Z,10.19
2022-11-04T01:42:40.689Z,10.22
2022-11-04T01:45:48.938Z,10.20
2022-11-04T01:48:53.291Z,10.23
2022-11-04T01:52:02.065Z,10.23
2022-11-04T01:55:10.672Z,10.26
2022-11-04T01:58:18.490Z,10.26
2022-11-04T02:01:22.861Z,10.28
2022-11-04T02:04:30.105Z,10.26
2022-11-04T02:07:33.622Z,10.32
2022-11-04T02:10:37.626Z,10.35
2022-11-04T02:13:39.520Z,10.30
2022-11-04T02:16:46.388Z,10.29
2022-11-04T02:20:09.944Z,10.31
2022-11-04T02:23:57.492Z,10.33
2022-11-04T02:27:27.976Z,10.35
2022-11-04T02:30:38.144Z,10.34
2022-11-04T02:33:47.927Z,10.41
2022-11-04T02:36:59.886Z,10.41
2022-11-04T02:40:13.424Z,10.41
2022-11-04T02:43:24.960Z,10.40
2022-11-04T02:46:35.910Z,10.44
2022-11-04T02:49:46.619Z,10.43
2022-11-04T02:52:57.629Z,10.42
2022-11-04T02:56:03.379Z,10.49
2022-11-04T02:59:11.410Z,10.61
2022-11-04T03:02:20.415Z,10.71
2022-11-04T03:05:29.425Z,10.76
2022-11-04T03:08:35.927Z,10.76
2022-11-04T03:11:42.074Z,10.77
2022-11-04T03:14:55.700Z,10.81
2022-11-04T03:18:08.091Z,10.92
2022-11-04T03:21:14.132Z,10.97
2022-11-04T03:24:17.161Z,10.91
2022-11-04T03:27:26.283Z,10.92
2022-11-04T03:30:40.280Z,11.09
2022-11-04T03:33:48.749Z,11.06
2022-11-04T03:36:51.833Z,11.05
2022-11-04T03:39:54.911Z,11.12
2022-11-04T03:43:01.998Z,11.13
2022-11-04T03:46:05.197Z,11.11
2022-11-04T03:49:11.173Z,11.02
2022-11-04T03:52:14.906Z,10.95
2022-11-04T03:55:18.063Z,10.89
2022-11-04T03:58:31.511Z,10.89
2022-11-04T04:01:45.572Z,10.81
2022-11-04T04:04:58.069Z,10.72
2022-11-04T04:08:15.338Z,10.60
2022-11-04T04:11:24.486Z,10.61
2022-11-04T04:14:42.654Z,10.52
2022-11-04T04:17:52.091Z,10.44
2022-11-04T04:20:59.940Z,10.47
2022-11-04T04:24:25.129Z,10.41
2022-11-04T04:27:33.885Z,10.41
2022-11-04T04:30:37.366Z,10.37
2022-11-04T04:33:40.403Z,10.34
2022-11-04T04:36:48.366Z,10.28
2022-11-04T04:40:20.876Z,10.19
2022-11-04T04:43:41.549Z,10.25
2022-11-04T04:46:46.467Z,10.26
2022-11-04T04:49:52.216Z,10.20
2022-11-04T04:52:59.372Z,10.18
2022-11-04T04:56:02.349Z,10.05
2022-11-04T04:59:05.525Z,10.04
2022-11-04T05:02:08.502Z,10.08
2022-11-04T05:05:11.993Z,10.15
2022-11-04T05:08:16.518Z,10.02
2022-11-04T05:11:24.288Z,10.15
2022-11-04T05:14:29.812Z,10.17
2022-11-04T05:17:32.657Z,10.22
2022-11-04T05:20:38.494Z,10.26
2022-11-04T05:23:42.720Z,10.26
2022-11-04T05:26:45.538Z,10.19
2022-11-04T05:29:48.370Z,10.17
2022-11-04T05:32:51.235Z,10.20
2022-11-04T05:35:54.276Z,10.17
2022-11-04T05:38:58.541Z,10.18
2022-11-04T05:42:02.089Z,10.12
2022-11-04T05:45:05.588Z,10.22
2022-11-04T05:48:08.497Z,10.28
2022-11-04T05:51:14.234Z,10.20
2022-11-04T05:54:18.414Z,10.21
2022-11-04T05:57:21.326Z,10.28
2022-11-04T06:00:24.368Z,10.30
2022-11-04T06:03:27.282Z,10.28
2022-11-04T06:06:32.447Z,10.24
2022-11-04T06:09:42.306Z,10.18
2022-11-04T06:12:45.215Z,10.27
2022-11-04T06:15:48.066Z,10.09
2022-11-04T06:18:50.990Z,10.10
2022-11-04T06:21:53.910Z,10.15
2022-11-04T06:24:58.143Z,10.11
2022-11-04T06:28:00.989Z,10.12
2022-11-04T06:31:05.949Z,10.09
2022-11-04T06:34:09.999Z,9.98
2022-11-04T06:37:13.539Z,9.99
2022-11-04T06:40:17.929Z,10.03
2022-11-04T06:43:20.888Z,10.00
2022-11-04T06:46:29.287Z,10.06
2022-11-04T06:49:32.289Z,10.10
2022-11-04T06:52:41.011Z,10.04
2022-11-04T06:55:46.736Z,10.04
2022-11-04T06:58:50.211Z,10.01
2022-11-04T07:01:53.203Z,9.89
2022-11-04T07:07:58.795Z,9.96
2022-11-04T07:11:04.096Z,9.99
2022-11-04T07:14:08.913Z,10.04
2022-11-04T07:17:11.956Z,10.12
2022-11-04T07:20:15.061Z,10.15
2022-11-04T07:23:17.854Z,10.19
2022-11-04T07:26:22.739Z,10.22
2022-11-04T07:29:25.810Z,10.06
2022-11-04T07:32:29.002Z,10.04
2022-11-04T07:35:32.081Z,10.05
2022-11-04T07:38:35.374Z,10.10
2022-11-04T07:41:39.676Z,10.07
2022-11-04T07:44:42.896Z,10.03
2022-11-04T07:47:45.840Z,10.08
2022-11-04T07:50:48.786Z,10.00
2022-11-04T07:53:51.887Z,9.96
2022-11-04T07:56:56.126Z,9.83
2022-11-04T07:59:59.572Z,9.85
2022-11-04T08:03:02.767Z,9.90
2022-11-04T08:06:08.508Z,9.91
2022-11-04T08:09:11.421Z,9.85
2022-11-04T08:12:15.675Z,9.86
2022-11-04T08:15:18.761Z,9.81
2022-11-04T08:18:21.647Z,9.88
2022-11-04T08:21:24.520Z,9.75
2022-11-04T08:24:27.396Z,9.74
2022-11-04T08:27:31.640Z,9.68
2022-11-04T08:30:34.797Z,9.71
2022-11-04T08:33:37.890Z,9.66
2022-11-04T08:36:43.046Z,9.70
2022-11-04T08:39:45.963Z,9.66
2022-11-04T08:42:50.183Z,9.64
2022-11-04T08:45:54.120Z,9.62
2022-11-04T08:48:57.035Z,9.67
2022-11-04T08:52:00.662Z,9.70
2022-11-04T08:55:03.490Z,9.73
2022-11-04T08:58:08.220Z,9.78
2022-11-04T09:01:12.777Z,9.73
2022-11-04T09:04:15.732Z,9.73
2022-11-04T09:07:18.698Z,9.67
2022-11-04T09:10:21.917Z,9.73
2022-11-04T09:13:26.278Z,9.76
2022-11-04T09:16:29.970Z,9.76
2022-11-04T09:19:32.874Z,9.72
2022-11-04T09:22:35.694Z,9.74
2022-11-04T09:25:39.019Z,9.74
2022-11-04T09:28:43.897Z,9.68
2022-11-04T09:31:46.747Z,9.67
2022-11-04T09:34:49.640Z,9.68
2022-11-04T09:37:52.459Z,9.69
2022-11-04T09:40:55.364Z,9.73
2022-11-04T09:44:05.632Z,9.72
2022-11-04T09:47:12.043Z,9.79
2022-11-04T09:50:22.533Z,9.80
2022-11-04T09:53:31.678Z,9.80
2022-11-04T09:56:37.975Z,9.82
2022-11-04T09:59:42.280Z,9.83
2022-11-04T10:02:56.189Z,9.80
2022-11-04T10:06:12.359Z,9.83
2022-11-04T10:09:28.329Z,9.82
2022-11-04T10:12:54.477Z,9.72
2022-11-04T10:16:20.043Z,9.69
2022-11-04T10:19:36.893Z,9.75
2022-11-04T10:22:52.818Z,9.74
2022-11-04T10:26:00.185Z,9.72
2022-11-04T10:29:07.009Z,9.61
2022-11-04T10:32:22.271Z,9.53
2022-11-04T10:35:33.437Z,9.56
2022-11-04T10:38:40.345Z,9.50
2022-11-04T10:41:43.482Z,9.52
2022-11-04T10:44:47.890Z,9.56
2022-11-04T10:47:59.123Z,9.59
2022-11-04T10:51:02.119Z,9.46
2022-11-04T10:54:09.929Z,9.39
2022-11-04T10:57:17.638Z,9.41
2022-11-04T11:00:38.481Z,9.19
2022-11-04T11:03:42.771Z,9.25
2022-11-04T11:06:51.587Z,9.19
2022-11-04T11:09:57.062Z,9.13
2022-11-04T11:13:03.406Z,9.21
2022-11-04T11:16:10.593Z,9.29
2022-11-04T11:19:20.297Z,9.33
2022-11-04T11:22:36.903Z,9.46
2022-11-04T11:25:45.628Z,9.48
2022-11-04T11:28:58.394Z,9.39
2022-11-04T11:32:01.906Z,9.41
2022-11-04T11:35:16.708Z,9.50
2022-11-04T11:38:23.041Z,9.57
2022-11-04T11:41:31.642Z,9.68
2022-11-04T11:44:38.798Z,9.61
2022-11-04T11:47:43.714Z,9.64
2022-11-04T11:50:58.731Z,9.66
2022-11-04T11:54:24.515Z,9.65
2022-11-04T11:57:43.157Z,9.56
2022-11-04T12:00:54.640Z,9.57
2022-11-04T12:11:08.519Z,9.46
2022-11-04T12:14:18.557Z,9.47
2022-11-04T12:17:36.976Z,9.34
2022-11-04T12:20:50.172Z,9.39
2022-11-04T12:23:56.846Z,9.25
2022-11-04T12:27:12.942Z,9.30
2022-11-04T12:30:21.255Z,9.27
2022-11-04T12:33:36.830Z,9.31
2022-11-04T12:36:54.834Z,9.35
2022-11-04T12:40:18.903Z,9.36
2022-11-04T12:43:29.302Z,9.47
2022-11-04T12:46:41.816Z,9.47
2022-11-04T12:49:56.477Z,9.54
2022-11-04T12:53:28.165Z,9.52
2022-11-04T12:56:38.520Z,9.56
2022-11-04T12:59:53.454Z,9.61
2022-11-04T13:03:02.266Z,9.71
2022-11-04T13:06:10.370Z,9.61
2022-11-04T13:09:18.038Z,9.63
2022-11-04T13:12:25.287Z,9.62
2022-11-04T13:15:31.793Z,9.57
2022-11-04T13:18:38.616Z,9.54
2022-11-04T13:21:41.666Z,9.42
2022-11-04T13:24:50.426Z,9.20
2022-11-04T13:31:47.330Z,9.47
2022-11-04T13:35:01.080Z,9.45
2022-11-04T13:38:09.035Z,9.46
2022-11-04T13:41:33.695Z,9.52
2022-11-04T13:44:40.455Z,9.59
2022-11-04T13:47:50.447Z,9.65
2022-11-04T13:51:02.324Z,9.63
2022-11-04T13:54:06.457Z,9.66
2022-11-04T13:57:13.823Z,9.69
2022-11-04T14:00:24.385Z,9.70
2022-11-04T14:03:41.754Z,9.76
2022-11-04T14:06:52.323Z,9.66
2022-11-04T14:09:56.550Z,9.67
2022-11-04T14:13:45.175Z,9.62
2022-11-04T14:16:48.128Z,9.65
2022-11-04T14:19:59.793Z,9.76
2022-11-04T14:23:05.918Z,9.79
2022-11-04T14:26:11.750Z,9.69
2022-11-04T14:29:19.391Z,9.73
2022-11-04T14:32:27.337Z,9.67
2022-11-04T14:35:31.488Z,9.80
2022-11-04T14:38:35.883Z,9.84
2022-11-04T14:41:57.728Z,9.90
2022-11-04T14:45:01.949Z,9.92
2022-11-04T14:48:16.008Z,9.95
2022-11-04T14:51:26.185Z,9.91
2022-11-04T14:54:34.081Z,9.79
2022-11-04T14:57:39.010Z,9.76
2022-11-04T15:00:53.901Z,9.82
2022-11-04T15:04:15.483Z,9.90
2022-11-04T15:07:35.031Z,9.85
2022-11-04T15:10:39.217Z,9.73
2022-11-04T15:13:48.732Z,9.76
2022-11-04T15:16:54.556Z,9.62
2022-11-04T15:20:01.514Z,9.55
2022-11-04T15:23:08.129Z,9.48
2022-11-04T15:26:28.119Z,9.43
2022-11-04T15:29:32.601Z,9.48
2022-11-04T15:32:35.436Z,9.45
2022-11-04T15:35:43.434Z,9.45
2022-11-04T15:38:50.586Z,9.41
2022-11-04T15:42:16.742Z,9.30
2022-11-04T15:45:29.212Z,9.32
2022-11-04T15:48:37.820Z,9.29
2022-11-04T15:51:42.730Z,9.39
2022-11-04T15:54:48.665Z,9.33
2022-11-04T15:57:54.129Z,9.50
2022-11-04T16:00:57.849Z,9.50
2022-11-04T16:04:02.904Z,9.48
2022-11-04T16:07:22.585Z,9.54
2022-11-04T16:10:31.361Z,9.47
2022-11-04T16:13:35.652Z,9.38
2022-11-04T16:16:38.651Z,9.56
2022-11-04T16:19:41.659Z,9.61
2022-11-04T16:22:45.573Z,9.63
2022-11-04T16:25:55.547Z,9.49
2022-11-04T16:29:01.968Z,9.62
2022-11-04T16:32:15.903Z,9.60
2022-11-04T16:35:22.775Z,9.44
2022-11-04T16:38:25.763Z,9.36
2022-11-04T16:41:30.891Z,9.24
2022-11-04T16:44:35.173Z,9.24
2022-11-04T16:47:40.892Z,9.42
2022-11-04T16:50:43.845Z,9.41
2022-11-04T16:53:50.324Z,9.40
2022-11-04T16:56:54.506Z,9.51
2022-11-04T16:59:58.970Z,9.40
2022-11-04T17:03:05.268Z,9.32
2022-11-04T17:06:08.889Z,9.29
2022-11-04T17:09:21.485Z,9.34
2022-11-04T17:12:24.740Z,9.22
2022-11-04T17:15:29.200Z,9.21
2022-11-04T17:18:33.566Z,9.32
2022-11-04T17:21:36.758Z,9.41
2022-11-04T17:24:39.829Z,9.32
2022-11-04T17:27:42.780Z,9.17
2022-11-04T17:30:47.297Z,9.07
2022-11-04T17:33:50.341Z,9.02
2022-11-04T17:36:53.456Z,9.08
2022-11-04T17:39:56.792Z,9.05
2022-11-04T17:43:17.318Z,9.18
2022-11-04T17:46:38.224Z,9.12
2022-11-04T17:49:45.525Z,9.31
2022-11-04T17:52:49.444Z,9.24
2022-11-04T17:55:52.559Z,9.04
2022-11-04T17:58:55.470Z,8.97
2022-11-04T18:02:00.061Z,9.09
2022-11-04T18:05:03.670Z,9.04
2022-11-04T18:08:06.609Z,8.91
2022-11-04T18:11:12.434Z,9.00
2022-11-04T18:14:17.404Z,9.08
2022-11-04T18:17:24.652Z,9.13
2022-11-04T18:20:27.743Z,8.99
2022-11-04T18:23:30.709Z,8.97
2022-11-04T18:26:34.248Z,8.99
2022-11-04T18:29:37.289Z,9.06
2022-11-04T18:32:41.555Z,8.89
2022-11-04T18:35:44.534Z,8.95
2022-11-04T18:38:47.993Z,8.94
2022-11-04T18:41:50.982Z,8.85
2022-11-04T18:44:54.668Z,8.97
2022-11-04T18:47:59.041Z,8.98
2022-11-04T18:51:02.961Z,8.99
2022-11-04T18:54:07.612Z,8.98
2022-11-04T18:57:12.042Z,9.06
2022-11-04T19:00:17.231Z,9.04
2022-11-04T19:03:23.477Z,8.76
2022-11-04T19:06:28.180Z,8.66
2022-11-04T19:09:47.696Z,8.75
2022-11-04T19:13:08.206Z,8.64
2022-11-04T19:16:13.039Z,8.75
2022-11-04T19:19:17.428Z,8.50
2022-11-04T19:22:20.354Z,8.50
2022-11-04T19:25:23.420Z,8.52
2022-11-04T19:28:40.435Z,8.58
2022-11-04T19:31:48.327Z,8.56
2022-11-04T19:34:52.629Z,8.53
2022-11-04T19:37:56.056Z,8.45
2022-11-04T19:41:03.990Z,8.39
2022-11-04T19:44:08.550Z,8.47
2022-11-04T19:47:11.456Z,8.37
2022-11-04T19:50:15.873Z,8.32
2022-11-04T19:53:19.084Z,8.30
2022-11-04T19:56:22.736Z,8.20
2022-11-04T19:59:25.909Z,8.23
2022-11-04T20:02:28.879Z,8.27
2022-11-04T20:05:37.837Z,8.30
2022-11-04T20:08:41.940Z,8.23
2022-11-04T20:11:58.778Z,8.16
2022-11-04T20:15:01.821Z,8.20
2022-11-04T20:18:05.122Z,8.09
2022-11-04T20:21:09.420Z,8.05
2022-11-04T20:24:13.920Z,8.09
2022-11-04T20:27:16.845Z,8.11
2022-11-04T20:30:19.926Z,8.04
2022-11-04T20:33:22.789Z,8.20
2022-11-04T20:36:28.717Z,8.24
2022-11-04T20:39:31.798Z,8.20
2022-11-04T20:42:34.679Z,8.17
2022-11-04T20:45:37.643Z,8.17
2022-11-04T20:48:41.011Z,8.31
2022-11-04T20:51:54.431Z,8.34
2022-11-04T20:54:58.290Z,8.42
2022-11-04T20:58:01.156Z,8.18
2022-11-04T21:01:06.046Z,7.96
2022-11-04T21:04:11.511Z,8.14
2022-11-04T21:07:17.790Z,8.16
2022-11-04T21:10:20.637Z,8.11
2022-11-04T21:13:23.988Z,8.09
2022-11-04T21:16:26.997Z,8.12
2022-11-04T21:19:29.956Z,8.11
2022-11-04T21:22:35.162Z,8.24
2022-11-04T21:25:43.270Z,8.26
2022-11-04T21:28:46.165Z,8.21
2022-11-04T21:31:49.980Z,8.21
2022-11-04T21:34:52.843Z,8.27
2022-11-04T21:37:57.399Z,8.36
2022-11-04T21:41:04.146Z,8.36
2022-11-04T21:44:09.442Z,8.37
2022-11-04T21:47:12.550Z,8.34
2022-11-04T21:50:18.155Z,8.40
2022-11-04T21:53:22.595Z,8.37
2022-11-04T21:56:27.703Z,8.32
2022-11-04T21:59:32.374Z,8.35
2022-11-04T22:02:38.688Z,8.40
2022-11-04T22:05:41.852Z,8.37
2022-11-04T22:08:49.280Z,8.36
2022-11-04T22:11:52.666Z,8.23
2022-11-04T22:14:55.589Z,8.27
2022-11-04T22:17:58.501Z,8.29
2022-11-04T22:21:05.049Z,8.28
2022-11-04T22:24:11.049Z,8.24
2022-11-04T22:27:13.963Z,8.24
2022-11-04T22:30:16.890Z,8.10
2022-11-04T22:33:19.708Z,8.12
2022-11-04T22:36:23.310Z,8.14
2022-11-04T22:39:27.761Z,8.10
2022-11-04T22:42:30.639Z,8.13
2022-11-04T22:45:33.551Z,8.16
2022-11-04T22:48:37.571Z,8.16
2022-11-04T22:51:40.416Z,8.10
2022-11-04T22:54:44.650Z,8.18
2022-11-04T22:57:47.547Z,8.21
2022-11-04T23:00:56.457Z,8.22
2022-11-04T23:03:59.360Z,8.21
2022-11-04T23:07:02.315Z,8.20
2022-11-04T23:10:25.097Z,8.03
2022-11-04T23:13:45.508Z,8.09
2022-11-04T23:17:07.772Z,8.00
2022-11-04T23:20:13.288Z,7.98
2022-11-04T23:23:33.618Z,7.84
2022-11-04T23:26:37.946Z,7.71
2022-11-04T23:30:06.461Z,7.78
2022-11-04T23:33:11.801Z,7.53
2022-11-04T23:36:32.128Z,7.69
2022-11-04T23:39:35.045Z,7.65
2022-11-04T23:42:39.208Z,7.77
2022-11-04T23:45:59.531Z,7.71
2022-11-04T23:49:22.448Z,7.68
2022-11-04T23:52:42.808Z,7.68
2022-11-04T23:56:03.019Z,7.78
2022-11-04T23:59:27.404Z,7.81
